createdAt,value
2019-01-21T00:00:08.199Z,-426.45
2019-01-21T00:01:08.342Z,-426.72
2019-01-21T00:02:08.534Z,-426.14
2019-01-21T00:03:14.414Z,-426.92
2019-01-21T00:04:09.979Z,-426.94
2019-01-21T00:05:09.061Z,-428.14
2019-01-21T00:06:09.167Z,-426.46
2019-01-21T00:07:09.318Z,-427.05
2019-01-21T00:08:09.492Z,-424.67
2019-01-21T00:09:09.682Z,-423.23
2019-01-21T00:10:09.826Z,-427.13
2019-01-21T00:11:10.012Z,-424.92
2019-01-21T00:12:10.205Z,-424.20
2019-01-21T00:13:10.328Z,-425.61
2019-01-21T00:14:10.488Z,-427.09
2019-01-21T00:15:10.641Z,-426.46
2019-01-21T00:16:10.825Z,-429.85
2019-01-21T00:17:10.959Z,-428.42
2019-01-21T00:18:11.143Z,-428.00
2019-01-21T00:19:11.534Z,-427.42
2019-01-21T00:20:11.496Z,-427.70
2019-01-21T00:21:11.614Z,-426.41
2019-01-21T00:22:11.772Z,-425.54
2019-01-21T00:23:11.953Z,-424.99
2019-01-21T00:24:12.123Z,-426.58
2019-01-21T00:25:12.263Z,-428.58
2019-01-21T00:26:12.421Z,-425.99
2019-01-21T00:27:12.580Z,-426.55
2019-01-21T00:28:12.792Z,-425.23
2019-01-21T00:29:13.029Z,-426.40
2019-01-21T00:30:13.075Z,-424.14
2019-01-21T00:31:13.240Z,-422.73
2019-01-21T00:32:13.400Z,-424.14
2019-01-21T00:33:13.579Z,-424.47
2019-01-21T00:34:13.732Z,-426.25
2019-01-21T00:35:13.886Z,-423.65
2019-01-21T00:36:14.062Z,-424.84
2019-01-21T00:37:14.307Z,-424.36
2019-01-21T00:38:14.396Z,-424.73
2019-01-21T00:39:14.533Z,-426.19
2019-01-21T00:40:14.700Z,-423.76
2019-01-21T00:41:14.876Z,-422.89
2019-01-21T00:42:15.009Z,-423.11
2019-01-21T00:43:15.234Z,-424.03
2019-01-21T00:44:15.368Z,-421.88
2019-01-21T00:45:15.588Z,-422.29
2019-01-21T00:46:15.669Z,-420.46
2019-01-21T00:47:15.819Z,-418.01
2019-01-21T00:48:15.987Z,-419.47
2019-01-21T00:49:16.173Z,-418.43
2019-01-21T00:50:16.705Z,-416.01
2019-01-21T00:51:16.484Z,-416.86
2019-01-21T00:52:16.627Z,-419.11
2019-01-21T00:53:16.838Z,-417.26
2019-01-21T00:54:16.976Z,-415.29
2019-01-21T00:55:17.098Z,-412.96
2019-01-21T00:56:17.274Z,-416.06
2019-01-21T00:57:17.421Z,-415.69
2019-01-21T00:58:17.603Z,-414.70
2019-01-21T00:59:17.779Z,-414.30
2019-01-21T01:00:17.899Z,-417.62
2019-01-21T01:01:18.114Z,-415.54
2019-01-21T01:02:18.317Z,-414.97
2019-01-21T01:03:18.406Z,-417.63
2019-01-21T01:04:18.610Z,-413.85
2019-01-21T01:05:18.702Z,-415.14
2019-01-21T01:06:18.894Z,-438.33
2019-01-21T01:07:19.049Z,-438.55
2019-01-21T01:08:19.200Z,-439.35
2019-01-21T01:09:19.404Z,-440.57
2019-01-21T01:10:19.650Z,-435.52
2019-01-21T01:11:19.718Z,-438.37
2019-01-21T01:12:19.855Z,-437.65
2019-01-21T01:13:20.014Z,-437.32
2019-01-21T01:14:20.195Z,-436.72
2019-01-21T01:15:20.334Z,-437.93
2019-01-21T01:16:20.518Z,-439.28
2019-01-21T01:17:20.683Z,-437.02
2019-01-21T01:18:20.949Z,-438.76
2019-01-21T01:19:21.009Z,-438.55
2019-01-21T01:20:21.197Z,-437.97
2019-01-21T01:21:21.339Z,-437.59
2019-01-21T01:22:21.496Z,-437.49
2019-01-21T01:23:21.655Z,-437.31
2019-01-21T01:24:21.848Z,-436.96
2019-01-21T01:25:22.006Z,-436.57
2019-01-21T01:26:22.223Z,-436.27
2019-01-21T01:27:22.270Z,-436.29
2019-01-21T01:28:22.455Z,-437.09
2019-01-21T01:29:22.636Z,-437.20
2019-01-21T01:30:22.813Z,-437.51
2019-01-21T01:31:22.979Z,-435.12
2019-01-21T01:32:23.118Z,-437.60
2019-01-21T01:33:23.249Z,-436.45
2019-01-21T01:34:23.465Z,-435.76
2019-01-21T01:35:23.587Z,-436.55
2019-01-21T01:36:23.769Z,-436.50
2019-01-21T01:37:23.906Z,-434.82
2019-01-21T01:38:24.065Z,-436.76
2019-01-21T01:39:24.252Z,-438.66
2019-01-21T01:40:24.412Z,-411.46
2019-01-21T01:41:24.588Z,-410.44
2019-01-21T01:42:24.766Z,-411.21
2019-01-21T01:43:25.014Z,-411.78
2019-01-21T01:44:25.080Z,-413.99
2019-01-21T01:45:25.248Z,-410.77
2019-01-21T01:46:25.401Z,-412.93
2019-01-21T01:47:25.540Z,-413.17
2019-01-21T01:48:25.700Z,-413.09
2019-01-21T01:49:25.888Z,-412.82
2019-01-21T01:50:26.034Z,-413.50
2019-01-21T01:51:26.381Z,-411.13
2019-01-21T01:52:26.346Z,-412.85
2019-01-21T01:53:26.507Z,-412.14
2019-01-21T01:54:26.676Z,-412.77
2019-01-21T01:55:26.844Z,-415.59
2019-01-21T01:56:27.241Z,-412.45
2019-01-21T01:57:27.150Z,-413.67
2019-01-21T01:58:27.320Z,-412.00
2019-01-21T01:59:27.545Z,-411.16
2019-01-21T02:00:27.624Z,-411.66
2019-01-21T02:01:27.807Z,-413.48
2019-01-21T02:02:27.971Z,-414.02
2019-01-21T02:03:28.157Z,-413.41
2019-01-21T02:04:28.311Z,-412.32
2019-01-21T02:05:28.480Z,-413.65
2019-01-21T02:06:28.637Z,-412.04
2019-01-21T02:07:28.836Z,-413.07
2019-01-21T02:08:28.918Z,-411.94
2019-01-21T02:09:29.099Z,-414.49
2019-01-21T02:10:29.271Z,-414.44
2019-01-21T02:11:29.430Z,-413.74
2019-01-21T02:12:29.565Z,-412.10
2019-01-21T02:13:29.741Z,-412.60
2019-01-21T02:14:29.937Z,-413.62
2019-01-21T02:15:30.137Z,-413.99
2019-01-21T02:16:30.301Z,-412.51
2019-01-21T02:17:30.387Z,-410.85
2019-01-21T02:18:30.558Z,-413.76
2019-01-21T02:19:30.770Z,-414.06
2019-01-21T02:20:30.904Z,-411.93
2019-01-21T02:21:31.068Z,-413.23
2019-01-21T02:22:31.245Z,-415.36
2019-01-21T02:23:31.398Z,-413.69
2019-01-21T02:24:31.745Z,-415.52
2019-01-21T02:25:31.742Z,-414.11
2019-01-21T02:26:31.903Z,-416.26
2019-01-21T02:27:32.086Z,-414.96
2019-01-21T02:28:32.206Z,-415.76
2019-01-21T02:29:32.417Z,-416.14
2019-01-21T02:30:32.570Z,-415.70
2019-01-21T02:31:32.723Z,-413.24
2019-01-21T02:32:33.014Z,-415.49
2019-01-21T02:33:33.030Z,-413.15
2019-01-21T02:34:33.248Z,-415.61
2019-01-21T02:35:33.389Z,-414.24
2019-01-21T02:36:33.529Z,-416.63
2019-01-21T02:37:33.725Z,-414.96
2019-01-21T02:38:33.891Z,-414.90
2019-01-21T02:39:34.056Z,-414.13
2019-01-21T02:40:34.219Z,-415.15
2019-01-21T02:41:34.329Z,-415.02
2019-01-21T02:42:34.526Z,-415.35
2019-01-21T02:43:34.723Z,-416.46
2019-01-21T02:44:34.845Z,-414.60
2019-01-21T02:45:34.965Z,-416.30
2019-01-21T02:46:35.131Z,-415.27
2019-01-21T02:47:35.322Z,-415.62
2019-01-21T02:48:35.561Z,-415.62
2019-01-21T02:49:35.663Z,-416.90
2019-01-21T02:50:35.778Z,-418.29
2019-01-21T02:51:35.942Z,-417.42
2019-01-21T02:52:36.136Z,-416.36
2019-01-21T02:53:36.282Z,-416.45
2019-01-21T02:54:36.489Z,-417.23
2019-01-21T02:55:36.594Z,-418.01
2019-01-21T02:56:36.777Z,-417.43
2019-01-21T02:57:37.064Z,-416.30
2019-01-21T02:58:37.107Z,-415.09
2019-01-21T02:59:37.276Z,-414.71
2019-01-21T03:00:37.407Z,-417.36
2019-01-21T03:01:37.565Z,-414.55
2019-01-21T03:02:37.733Z,-416.29
2019-01-21T03:03:37.904Z,-418.38
2019-01-21T03:04:38.071Z,-416.80
2019-01-21T03:05:38.353Z,-415.07
2019-01-21T03:06:38.353Z,-416.23
2019-01-21T03:07:38.548Z,-413.65
2019-01-21T03:08:38.721Z,-415.95
2019-01-21T03:09:38.896Z,-414.28
2019-01-21T03:10:39.032Z,-414.34
2019-01-21T03:11:39.196Z,-413.94
2019-01-21T03:12:39.374Z,-415.06
2019-01-21T03:13:39.554Z,-415.49
2019-01-21T03:14:39.681Z,-415.76
2019-01-21T03:15:39.826Z,-412.73
2019-01-21T03:16:40.024Z,-413.50
2019-01-21T03:17:40.172Z,-413.90
2019-01-21T03:18:40.305Z,-415.31
2019-01-21T03:19:40.476Z,-413.16
2019-01-21T03:20:40.668Z,-415.45
2019-01-21T03:21:40.924Z,-416.81
2019-01-21T03:22:40.971Z,-413.77
2019-01-21T03:23:41.125Z,-414.99
2019-01-21T03:24:41.278Z,-415.30
2019-01-21T03:25:41.507Z,-414.19
2019-01-21T03:26:41.643Z,-417.88
2019-01-21T03:27:41.821Z,-416.21
2019-01-21T03:28:41.958Z,-417.72
2019-01-21T03:29:42.149Z,-417.64
2019-01-21T03:30:42.456Z,-418.57
2019-01-21T03:31:42.472Z,-419.78
2019-01-21T03:32:42.882Z,-418.88
2019-01-21T03:33:42.791Z,-419.72
2019-01-21T03:34:42.968Z,-419.68
2019-01-21T03:35:43.161Z,-416.59
2019-01-21T03:36:43.273Z,-419.72
2019-01-21T03:37:43.470Z,-417.98
2019-01-21T03:38:43.764Z,-417.16
2019-01-21T03:39:43.768Z,-419.34
2019-01-21T03:40:43.925Z,-417.24
2019-01-21T03:41:44.095Z,-415.58
2019-01-21T03:42:44.283Z,-415.83
2019-01-21T03:43:44.422Z,-415.42
2019-01-21T03:44:44.591Z,-414.72
2019-01-21T03:45:44.778Z,-415.98
2019-01-21T03:46:44.985Z,-416.86
2019-01-21T03:47:45.134Z,-417.33
2019-01-21T03:48:45.243Z,-418.79
2019-01-21T03:49:45.395Z,-419.86
2019-01-21T03:50:45.575Z,-421.18
2019-01-21T03:51:45.728Z,-419.81
2019-01-21T03:52:45.892Z,-419.94
2019-01-21T03:53:46.046Z,-421.33
2019-01-21T03:54:46.453Z,-423.08
2019-01-21T03:55:46.362Z,-420.92
2019-01-21T03:56:46.547Z,-424.14
2019-01-21T03:57:46.689Z,-421.27
2019-01-21T03:58:46.804Z,-420.46
2019-01-21T03:59:46.983Z,-422.41
2019-01-21T04:00:47.181Z,-422.48
2019-01-21T04:01:47.332Z,-422.29
2019-01-21T04:02:47.521Z,-423.36
2019-01-21T04:03:47.661Z,-425.09
2019-01-21T04:04:47.794Z,-423.95
2019-01-21T04:05:47.962Z,-424.76
2019-01-21T04:06:48.115Z,-422.54
2019-01-21T04:07:48.306Z,-420.67
2019-01-21T04:08:48.437Z,-420.69
2019-01-21T04:09:48.574Z,-422.25
2019-01-21T04:10:48.783Z,-422.08
2019-01-21T04:11:49.051Z,-421.86
2019-01-21T04:12:49.114Z,-424.16
2019-01-21T04:13:49.257Z,-424.12
2019-01-21T04:14:49.402Z,-422.66
2019-01-21T04:15:49.593Z,-423.11
2019-01-21T04:16:52.767Z,-422.69
2019-01-21T04:17:49.937Z,-422.26
2019-01-21T04:18:50.058Z,-424.38
2019-01-21T04:19:50.311Z,-423.59
2019-01-21T04:20:50.393Z,-423.61
2019-01-21T04:21:50.548Z,-423.53
2019-01-21T04:22:50.722Z,-422.83
2019-01-21T04:23:50.870Z,-421.02
2019-01-21T04:24:51.028Z,-420.24
2019-01-21T04:25:51.189Z,-421.58
2019-01-21T04:26:51.348Z,-422.31
2019-01-21T04:27:51.580Z,-424.68
2019-01-21T04:28:51.655Z,-424.75
2019-01-21T04:29:51.820Z,-423.10
2019-01-21T04:30:51.985Z,-422.56
2019-01-21T04:31:52.126Z,-422.28
2019-01-21T04:32:52.343Z,-421.92
2019-01-21T04:33:52.464Z,-425.72
2019-01-21T04:34:52.650Z,-425.89
2019-01-21T04:35:52.862Z,-423.73
2019-01-21T04:36:52.914Z,-422.49
2019-01-21T04:37:53.109Z,-423.15
2019-01-21T04:38:53.275Z,-422.85
2019-01-21T04:39:53.506Z,-417.63
2019-01-21T04:40:53.626Z,-421.58
2019-01-21T04:41:53.760Z,-426.49
2019-01-21T04:42:53.939Z,-427.46
2019-01-21T04:43:54.104Z,-425.58
2019-01-21T04:44:54.302Z,-426.59
2019-01-21T04:45:54.421Z,-425.95
2019-01-21T04:46:54.563Z,-425.60
2019-01-21T04:47:54.709Z,-424.74
2019-01-21T04:48:54.897Z,-424.56
2019-01-21T04:49:55.075Z,-425.76
2019-01-21T04:50:55.228Z,-425.93
2019-01-21T04:51:55.373Z,-424.87
2019-01-21T04:52:55.677Z,-425.57
2019-01-21T04:53:55.700Z,-425.45
2019-01-21T04:54:55.890Z,-426.57
2019-01-21T04:55:56.049Z,-422.73
2019-01-21T04:56:56.209Z,-424.63
2019-01-21T04:57:56.354Z,-423.20
2019-01-21T04:58:56.547Z,-424.88
2019-01-21T04:59:56.701Z,-425.72
2019-01-21T05:00:56.953Z,-424.22
2019-01-21T05:01:56.993Z,-425.79
2019-01-21T05:02:57.167Z,-420.94
2019-01-21T05:03:57.339Z,-422.55
2019-01-21T05:04:57.494Z,-417.80
2019-01-21T05:05:57.662Z,-422.42
2019-01-21T05:06:57.809Z,-424.49
2019-01-21T05:07:57.970Z,-424.29
2019-01-21T05:08:58.199Z,-425.38
2019-01-21T05:09:58.301Z,-424.81
2019-01-21T05:10:58.443Z,-423.57
2019-01-21T05:11:58.830Z,-424.85
2019-01-21T05:12:58.779Z,-422.70
2019-01-21T05:13:58.951Z,-424.75
2019-01-21T05:14:59.108Z,-419.91
2019-01-21T05:15:59.263Z,-416.37
2019-01-21T05:16:59.458Z,-423.02
2019-01-21T05:17:59.570Z,-421.57
2019-01-21T05:18:59.754Z,-421.23
2019-01-21T05:19:59.920Z,-421.46
2019-01-21T05:21:00.073Z,-422.19
2019-01-21T05:22:00.220Z,-424.54
2019-01-21T05:23:00.366Z,-423.11
2019-01-21T05:24:00.563Z,-422.48
2019-01-21T05:25:00.754Z,-424.00
2019-01-21T05:26:00.957Z,-424.64
2019-01-21T05:27:01.013Z,-421.61
2019-01-21T05:28:01.182Z,-419.03
2019-01-21T05:29:01.378Z,-418.38
2019-01-21T05:30:01.562Z,-422.43
2019-01-21T05:31:01.705Z,-417.40
2019-01-21T05:32:01.844Z,-419.08
2019-01-21T05:33:01.997Z,-421.96
2019-01-21T05:34:02.376Z,-419.97
2019-01-21T05:35:02.354Z,-408.97
2019-01-21T05:36:02.514Z,-416.99
2019-01-21T05:37:02.657Z,-421.24
2019-01-21T05:38:02.800Z,-421.59
2019-01-21T05:39:02.996Z,-419.40
2019-01-21T05:40:03.146Z,-421.73
2019-01-21T05:41:03.329Z,-421.23
2019-01-21T05:42:03.512Z,-422.69
2019-01-21T05:43:03.603Z,-421.89
2019-01-21T05:44:03.777Z,-421.21
2019-01-21T05:45:03.933Z,-420.62
2019-01-21T05:46:04.118Z,-418.80
2019-01-21T05:47:04.255Z,-420.82
2019-01-21T05:48:04.410Z,-420.20
2019-01-21T05:49:04.594Z,-419.79
2019-01-21T05:50:04.783Z,-421.30
2019-01-21T05:51:04.899Z,-419.11
2019-01-21T05:52:05.043Z,-419.92
2019-01-21T05:53:05.202Z,-420.95
2019-01-21T05:54:05.388Z,-420.06
2019-01-21T05:55:05.510Z,-421.32
2019-01-21T05:56:05.686Z,-422.41
2019-01-21T05:57:05.871Z,-420.66
2019-01-21T05:58:06.070Z,-419.11
2019-01-21T05:59:06.275Z,-420.29
2019-01-21T06:00:06.343Z,-417.51
2019-01-21T06:01:06.517Z,-418.82
2019-01-21T06:02:06.700Z,-419.58
2019-01-21T06:03:06.837Z,-417.33
2019-01-21T06:04:07.020Z,-422.85
2019-01-21T06:05:07.166Z,-420.26
2019-01-21T06:06:07.342Z,-417.88
2019-01-21T06:07:07.657Z,-417.73
2019-01-21T06:08:07.668Z,-420.10
2019-01-21T06:09:07.835Z,-416.46
2019-01-21T06:10:07.982Z,-446.39
2019-01-21T06:11:08.126Z,-443.59
2019-01-21T06:12:08.352Z,-445.17
2019-01-21T06:13:08.542Z,-446.06
2019-01-21T06:14:08.658Z,-443.51
2019-01-21T06:15:08.881Z,-442.96
2019-01-21T06:16:08.936Z,-444.11
2019-01-21T06:17:09.162Z,-443.50
2019-01-21T06:18:09.306Z,-442.17
2019-01-21T06:19:09.589Z,-441.27
2019-01-21T06:20:09.622Z,-416.21
2019-01-21T06:21:09.776Z,-445.34
2019-01-21T06:22:10.001Z,-443.70
2019-01-21T06:23:10.144Z,-443.29
2019-01-21T06:24:10.264Z,-445.36
2019-01-21T06:25:10.417Z,-441.54
2019-01-21T06:26:10.578Z,-441.48
2019-01-21T06:27:10.781Z,-442.35
2019-01-21T06:28:10.880Z,-443.39
2019-01-21T06:29:11.058Z,-441.11
2019-01-21T06:30:11.217Z,-443.16
2019-01-21T06:31:11.427Z,-442.75
2019-01-21T06:32:11.602Z,-442.18
2019-01-21T06:33:11.714Z,-442.33
2019-01-21T06:34:11.871Z,-441.28
2019-01-21T06:35:12.037Z,-436.88
2019-01-21T06:36:12.205Z,-385.63
2019-01-21T06:37:12.389Z,-430.06
2019-01-21T06:38:12.523Z,-432.95
2019-01-21T06:39:12.770Z,-439.65
2019-01-21T06:40:12.952Z,-439.40
2019-01-21T06:41:13.004Z,-438.31
2019-01-21T06:42:13.181Z,-442.29
2019-01-21T06:43:13.326Z,-441.42
2019-01-21T06:44:13.506Z,-443.03
2019-01-21T06:45:13.652Z,-441.85
2019-01-21T06:46:13.812Z,-442.40
2019-01-21T06:47:13.982Z,-445.15
2019-01-21T06:48:14.287Z,-443.60
2019-01-21T06:49:14.316Z,-416.81
2019-01-21T06:50:14.464Z,-440.07
2019-01-21T06:51:14.869Z,-417.00
2019-01-21T06:52:14.819Z,-417.98
2019-01-21T06:53:14.973Z,-414.29
2019-01-21T06:54:15.125Z,-442.12
2019-01-21T06:55:15.288Z,-444.98
2019-01-21T06:56:15.495Z,-447.07
2019-01-21T06:57:15.600Z,-445.57
2019-01-21T06:58:15.788Z,-443.52
2019-01-21T06:59:15.916Z,-440.22
2019-01-21T07:00:16.100Z,-441.89
2019-01-21T07:01:16.261Z,-442.10
2019-01-21T07:02:16.431Z,-441.86
2019-01-21T07:03:16.615Z,-439.30
2019-01-21T07:04:16.811Z,-441.45
2019-01-21T07:05:16.925Z,-411.60
2019-01-21T07:06:17.069Z,-432.84
2019-01-21T07:07:17.233Z,-434.13
2019-01-21T07:08:17.383Z,-433.37
2019-01-21T07:09:17.564Z,-435.10
2019-01-21T07:10:17.759Z,-435.49
2019-01-21T07:11:17.887Z,-438.34
2019-01-21T07:12:18.112Z,-439.93
2019-01-21T07:13:18.245Z,-437.70
2019-01-21T07:14:18.371Z,-432.61
2019-01-21T07:15:18.576Z,-430.22
2019-01-21T07:16:18.693Z,-433.88
2019-01-21T07:17:18.873Z,-433.10
2019-01-21T07:18:19.657Z,-436.58
2019-01-21T07:19:19.164Z,-437.00
2019-01-21T07:20:19.386Z,-440.54
2019-01-21T07:21:19.634Z,-416.56
2019-01-21T07:22:19.679Z,-440.07
2019-01-21T07:23:19.808Z,-440.19
2019-01-21T07:24:19.979Z,-436.03
2019-01-21T07:25:20.197Z,-437.23
2019-01-21T07:26:20.317Z,-437.78
2019-01-21T07:27:20.502Z,-439.10
2019-01-21T07:28:20.652Z,-443.10
2019-01-21T07:29:20.878Z,-441.64
2019-01-21T07:30:20.991Z,-441.14
2019-01-21T07:31:21.118Z,-440.58
2019-01-21T07:32:21.303Z,-443.72
2019-01-21T07:33:21.441Z,-443.82
2019-01-21T07:34:21.594Z,-443.41
2019-01-21T07:35:21.796Z,-438.55
2019-01-21T07:36:21.945Z,-440.71
2019-01-21T07:37:22.188Z,-417.85
2019-01-21T07:38:22.250Z,-441.59
2019-01-21T07:39:22.420Z,-441.62
2019-01-21T07:40:22.586Z,-443.29
2019-01-21T07:41:22.744Z,-443.72
2019-01-21T07:42:22.936Z,-442.16
2019-01-21T07:43:23.079Z,-441.84
2019-01-21T07:44:23.241Z,-441.22
2019-01-21T07:45:23.495Z,-442.71
2019-01-21T07:46:23.541Z,-443.48
2019-01-21T07:47:23.750Z,-420.25
2019-01-21T07:48:23.895Z,-439.93
2019-01-21T07:49:24.058Z,-440.62
2019-01-21T07:50:24.794Z,-439.74
2019-01-21T07:51:24.378Z,-441.50
2019-01-21T07:52:25.322Z,-441.17
2019-01-21T07:53:25.318Z,-441.18
2019-01-21T07:54:25.013Z,-439.66
2019-01-21T07:55:25.122Z,-421.16
2019-01-21T07:56:25.398Z,-434.18
2019-01-21T07:57:25.352Z,-440.23
2019-01-21T07:58:25.531Z,-440.85
2019-01-21T07:59:25.688Z,-443.83
2019-01-21T08:00:25.894Z,-444.48
2019-01-21T08:01:26.025Z,-441.62
2019-01-21T08:02:26.254Z,-445.31
2019-01-21T08:03:26.356Z,-442.78
2019-01-21T08:04:26.513Z,-442.66
2019-01-21T08:05:26.712Z,-444.26
2019-01-21T08:06:26.853Z,-445.67
2019-01-21T08:07:26.986Z,-443.04
2019-01-21T08:08:27.164Z,-443.83
2019-01-21T08:09:27.334Z,-446.10
2019-01-21T08:10:27.611Z,-442.56
2019-01-21T08:11:27.664Z,-443.79
2019-01-21T08:12:27.815Z,-445.30
2019-01-21T08:13:27.977Z,-445.67
2019-01-21T08:14:28.138Z,-445.76
2019-01-21T08:15:28.332Z,-443.91
2019-01-21T08:16:28.506Z,-437.91
2019-01-21T08:17:28.638Z,-441.54
2019-01-21T08:18:28.853Z,-443.34
2019-01-21T08:19:28.928Z,-444.00
2019-01-21T08:20:29.128Z,-443.72
2019-01-21T08:21:29.284Z,-445.60
2019-01-21T08:22:29.430Z,-445.22
2019-01-21T08:23:30.352Z,-444.01
2019-01-21T08:24:29.772Z,-443.69
2019-01-21T08:25:29.926Z,-442.32
2019-01-21T08:26:30.135Z,-443.04
2019-01-21T08:27:30.344Z,-444.04
2019-01-21T08:28:30.477Z,-442.94
2019-01-21T08:29:30.816Z,-443.86
2019-01-21T08:30:30.764Z,-446.11
2019-01-21T08:31:30.899Z,-445.47
2019-01-21T08:32:31.099Z,-444.71
2019-01-21T08:33:31.251Z,-443.64
2019-01-21T08:34:31.403Z,-432.89
2019-01-21T08:35:31.655Z,-441.84
2019-01-21T08:36:31.721Z,-442.43
2019-01-21T08:37:31.898Z,-444.25
2019-01-21T08:38:32.073Z,-444.33
2019-01-21T08:39:32.222Z,-447.13
2019-01-21T08:40:32.392Z,-447.00
2019-01-21T08:41:32.545Z,-447.62
2019-01-21T08:42:32.698Z,-448.05
2019-01-21T08:43:33.022Z,-447.92
2019-01-21T08:44:33.020Z,-446.47
2019-01-21T08:45:33.202Z,-441.41
2019-01-21T08:46:33.360Z,-446.61
2019-01-21T08:47:33.513Z,-448.95
2019-01-21T08:48:33.693Z,-447.62
2019-01-21T08:49:33.829Z,-443.85
2019-01-21T08:50:34.017Z,-444.38
2019-01-21T08:51:35.622Z,-445.65
2019-01-21T08:52:34.286Z,-449.74
2019-01-21T08:53:34.488Z,-446.81
2019-01-21T08:54:34.631Z,-435.11
2019-01-21T08:55:34.829Z,-446.72
2019-01-21T08:56:34.977Z,-448.02
2019-01-21T08:57:35.115Z,-446.91
2019-01-21T08:58:35.275Z,-450.34
2019-01-21T08:59:35.513Z,-447.81
2019-01-21T09:00:35.612Z,-449.46
2019-01-21T09:01:35.771Z,-449.39
2019-01-21T09:02:35.926Z,-448.56
2019-01-21T09:03:36.140Z,-452.13
2019-01-21T09:04:36.233Z,-440.89
2019-01-21T09:05:36.412Z,-440.73
2019-01-21T09:06:36.572Z,-447.10
2019-01-21T09:07:36.761Z,-446.69
2019-01-21T09:08:37.694Z,-446.19
2019-01-21T09:09:37.043Z,-448.57
2019-01-21T09:10:37.296Z,-450.50
2019-01-21T09:11:37.433Z,-450.66
2019-01-21T09:12:37.553Z,-452.01
2019-01-21T09:13:37.755Z,-448.23
2019-01-21T09:14:37.885Z,-448.72
2019-01-21T09:15:38.033Z,-449.38
2019-01-21T09:16:38.343Z,-449.70
2019-01-21T09:17:38.360Z,-447.41
2019-01-21T09:18:38.547Z,-451.11
2019-01-21T09:19:38.676Z,-452.01
2019-01-21T09:20:38.849Z,-448.85
2019-01-21T09:21:39.079Z,-446.27
2019-01-21T09:22:39.186Z,-447.90
2019-01-21T09:23:39.366Z,-450.23
2019-01-21T09:24:39.616Z,-448.46
2019-01-21T09:25:39.642Z,-449.31
2019-01-21T09:26:39.862Z,-447.28
2019-01-21T09:27:40.010Z,-448.32
2019-01-21T09:28:40.164Z,-448.35
2019-01-21T09:29:40.308Z,-446.27
2019-01-21T09:30:40.485Z,-446.86
2019-01-21T09:31:40.638Z,-447.73
2019-01-21T09:32:40.876Z,-445.62
2019-01-21T09:33:40.974Z,-446.94
2019-01-21T09:34:41.125Z,-446.44
2019-01-21T09:35:41.287Z,-440.15
2019-01-21T09:36:41.461Z,-439.79
2019-01-21T09:37:41.614Z,-446.18
2019-01-21T09:38:41.792Z,-446.72
2019-01-21T09:39:41.955Z,-449.46
2019-01-21T09:40:42.147Z,-448.37
2019-01-21T09:41:43.506Z,-446.58
2019-01-21T09:42:42.448Z,-447.99
2019-01-21T09:43:42.623Z,-450.11
2019-01-21T09:44:42.779Z,-448.26
2019-01-21T09:45:42.940Z,-445.19
2019-01-21T09:46:43.121Z,-447.16
2019-01-21T09:47:43.284Z,-450.40
2019-01-21T09:48:43.453Z,-448.81
2019-01-21T09:49:43.971Z,-449.30
2019-01-21T09:50:43.747Z,-448.42
2019-01-21T09:51:43.929Z,-424.85
2019-01-21T09:52:44.097Z,-450.76
2019-01-21T09:53:44.237Z,-425.29
2019-01-21T09:54:44.378Z,-422.31
2019-01-21T09:55:44.918Z,-420.12
2019-01-21T09:56:44.736Z,-447.90
2019-01-21T09:57:45.035Z,-445.58
2019-01-21T09:58:45.052Z,-423.31
2019-01-21T09:59:45.222Z,-422.64
2019-01-21T10:00:45.372Z,-448.65
2019-01-21T10:01:45.557Z,-447.99
2019-01-21T10:02:45.713Z,-446.81
2019-01-21T10:03:45.879Z,-448.93
2019-01-21T10:04:46.001Z,-447.61
2019-01-21T10:05:46.265Z,-447.45
2019-01-21T10:06:46.361Z,-446.25
2019-01-21T10:07:46.761Z,-447.30
2019-01-21T10:08:46.668Z,-448.16
2019-01-21T10:09:46.830Z,-452.36
2019-01-21T10:10:46.975Z,-453.49
2019-01-21T10:11:47.154Z,-453.76
2019-01-21T10:12:47.341Z,-455.76
2019-01-21T10:13:47.510Z,-453.91
2019-01-21T10:14:47.629Z,-455.06
2019-01-21T10:15:47.796Z,-455.48
2019-01-21T10:16:50.822Z,-455.59
2019-01-21T10:17:48.122Z,-452.73
2019-01-21T10:18:48.293Z,-450.58
2019-01-21T10:19:50.716Z,-453.72
2019-01-21T10:20:49.794Z,-452.59
2019-01-21T10:21:48.839Z,-452.63
2019-01-21T10:22:48.997Z,-449.33
2019-01-21T10:23:49.109Z,-449.84
2019-01-21T10:24:49.285Z,-451.41
2019-01-21T10:25:49.447Z,-451.17
2019-01-21T10:26:49.660Z,-448.53
2019-01-21T10:27:49.770Z,-449.00
2019-01-21T10:28:49.917Z,-447.90
2019-01-21T10:29:50.124Z,-447.48
2019-01-21T10:30:50.427Z,-448.48
2019-01-21T10:31:50.490Z,-445.92
2019-01-21T10:32:50.598Z,-446.40
2019-01-21T10:33:50.764Z,-445.77
2019-01-21T10:34:50.951Z,-446.62
2019-01-21T10:35:51.093Z,-435.96
2019-01-21T10:36:51.301Z,-445.22
2019-01-21T10:37:52.836Z,-448.02
2019-01-21T10:38:51.661Z,-447.87
2019-01-21T10:39:51.757Z,-449.41
2019-01-21T10:40:51.903Z,-452.23
2019-01-21T10:41:52.082Z,-450.88
2019-01-21T10:42:52.242Z,-453.63
2019-01-21T10:43:52.386Z,-452.49
2019-01-21T10:44:52.548Z,-454.47
2019-01-21T10:45:52.711Z,-451.94
2019-01-21T10:46:52.965Z,-454.28
2019-01-21T10:47:53.055Z,-453.76
2019-01-21T10:48:53.191Z,-453.53
2019-01-21T10:49:57.264Z,-455.82
2019-01-21T10:50:53.506Z,-453.07
2019-01-21T10:51:53.702Z,-455.25
2019-01-21T10:52:53.863Z,-448.53
2019-01-21T10:53:54.004Z,-453.12
2019-01-21T10:54:54.219Z,-444.82
2019-01-21T10:55:54.292Z,-450.65
2019-01-21T10:56:54.486Z,-427.00
2019-01-21T10:57:54.669Z,-452.24
2019-01-21T10:58:54.807Z,-449.81
2019-01-21T10:59:54.983Z,-450.93
2019-01-21T11:00:56.544Z,-454.47
2019-01-21T11:01:55.309Z,-453.06
2019-01-21T11:02:55.498Z,-450.77
2019-01-21T11:03:55.710Z,-451.84
2019-01-21T11:04:55.792Z,-446.35
2019-01-21T11:05:55.938Z,-448.27
2019-01-21T11:06:56.120Z,-448.79
2019-01-21T11:07:56.272Z,-451.92
2019-01-21T11:08:56.424Z,-450.93
2019-01-21T11:09:56.599Z,-449.54
2019-01-21T11:10:56.749Z,-451.19
2019-01-21T11:11:57.117Z,-446.97
2019-01-21T11:12:57.075Z,-447.78
2019-01-21T11:13:57.227Z,-449.63
2019-01-21T11:14:57.412Z,-442.02
2019-01-21T11:15:57.564Z,-445.50
2019-01-21T11:16:57.742Z,-449.40
2019-01-21T11:17:57.915Z,-452.19
2019-01-21T11:18:58.060Z,-454.40
2019-01-21T11:20:03.777Z,-452.22
2019-01-21T11:20:59.355Z,-450.94
2019-01-21T11:21:58.537Z,-445.54
2019-01-21T11:22:58.700Z,-423.85
2019-01-21T11:23:58.855Z,-449.87
2019-01-21T11:24:59.038Z,-450.62
2019-01-21T11:25:59.193Z,-451.37
2019-01-21T11:26:59.350Z,-452.59
2019-01-21T11:27:59.542Z,-452.57
2019-01-21T11:28:59.682Z,-429.90
2019-01-21T11:29:59.823Z,-454.40
2019-01-21T11:30:59.980Z,-451.85
2019-01-21T11:32:00.156Z,-454.12
2019-01-21T11:33:00.335Z,-456.06
2019-01-21T11:34:01.395Z,-451.18
2019-01-21T11:35:00.681Z,-425.08
2019-01-21T11:36:00.856Z,-449.49
2019-01-21T11:37:01.037Z,-450.58
2019-01-21T11:38:01.162Z,-452.68
2019-01-21T11:39:01.374Z,-451.47
2019-01-21T11:40:01.492Z,-449.85
2019-01-21T11:41:01.607Z,-453.76
2019-01-21T11:42:01.787Z,-452.29
2019-01-21T11:43:01.986Z,-452.97
2019-01-21T11:44:02.171Z,-454.20
2019-01-21T11:45:02.660Z,-432.14
2019-01-21T11:46:02.438Z,-455.37
2019-01-21T11:47:02.617Z,-429.76
2019-01-21T11:48:02.814Z,-452.90
2019-01-21T11:49:02.981Z,-454.01
2019-01-21T11:50:03.126Z,-457.32
2019-01-21T11:51:03.840Z,-431.42
2019-01-21T11:52:03.412Z,-453.02
2019-01-21T11:53:03.732Z,-452.14
2019-01-21T11:54:03.771Z,-456.09
2019-01-21T11:55:03.932Z,-451.73
2019-01-21T11:56:04.077Z,-448.27
2019-01-21T11:57:04.225Z,-454.08
2019-01-21T11:58:04.417Z,-453.16
2019-01-21T11:59:04.591Z,-426.58
2019-01-21T12:00:04.765Z,-453.44
2019-01-21T12:01:04.926Z,-449.30
2019-01-21T12:02:05.045Z,-453.54
2019-01-21T12:03:05.215Z,-453.84
2019-01-21T12:04:05.374Z,-450.90
2019-01-21T12:05:05.568Z,-453.49
2019-01-21T12:06:05.699Z,-450.22
2019-01-21T12:07:05.862Z,-451.97